Ride Results

Dergholm (13-11-2011)
Ride distance: 80.0 km

Outcomes - Dergholm (13-11-2011)
Division No. of Entries Retired / DNE Completed Withdrawn Ineligible V/O Percentage Completed
HW 13 - 10 - - 3 76.92%
MW 10 - 7 - - 3 70.00%
LW 7 - 7 - - - 100.00%
JN 2 - 2 - - - 100.00%
Totals 32 - 26 - - 6 81.25%
Results - Dergholm (13-11-2011)
No. Rider Horse Place Time Leg Speeds Total
Km/Hr
H/R bpm
Heavyweight
18 Ken Bradley Twin Peaks Kenny Karaoke 1 3:59:00 20.5, 19.6 20.08 34, 52, 58 (Avg:55)
150 Jody Smith Rage On 1 (BC) 3:59:00 20.1, 19.9 20.08 35, 48, 53 (Avg:50)
236 Neil Gardner Rivergum Delight 3 5:36:00 18.8, 11.4 14.29 30, 45, 46 (Avg:45)
750 Nick Egan Razorback Magic Wings 4 5:38:00 17.2, 12.0 14.20 41, 45, 49 (Avg:47)
225 Ray Heinrich Brookman Park Wizard 5 5:41:00 19.8, 10.9 14.08 40, 50, 59 (Avg:54)
754 Mark Shillabeer Jamat Ibn Shakhaan 6 6:41:00 13.1, 11.0 11.97 39, 42, 53 (Avg:47)
131 Simon Thomas Rocky Point Harlequin Opal 7 6:56:00 12.2, 10.9 11.54 34, 45, 50 (Avg:47)
311 Tarrant Smith Sandine Liano 8 7:14:00 8.8, 14.8 11.06 34, 43, 57 (Avg:50)
268 Lainie Ray Arabiana Montisha 9 7:47:00 10.7, 9.8 10.28 33, 43, 49 (Avg:46)
58 Dianne Tobin Granjen Ruben James 10 7:51:00 10.4, 9.9 10.19 42, 46, 56 (Avg:51)
76 Russell Robinson Jayay Alishah Lame L2 0:00:00 18.8, 13.4 - 34, 48, 52 (Avg:50)
753 John Shillabeer Shillabeer Tourism Lame L2 0:00:00 13.1, 11.0 - 37, 39, 48 (Avg:43)
337 Allison Whitney Destined For Dubai Lame L1 0:00:00 13.1 - 34, 39 (Avg:39)
Middleweight
42 Hans Peuker Marybank Celia 1 (BC) 5:05:00 19.8, 13.0 15.74 34, 48, 55 (Avg:51)
351 Steve Blackhurst Rowallan Nara 2 5:36:00 18.8, 11.4 14.29 34, 44, 43 (Avg:43)
228 Leonie Goode Ben 10 3 5:40:00 14.6, 13.6 14.12 38, 46, 56 (Avg:51)
138 Emma Sellens Musical Gully Legato 3 5:40:00 14.6, 13.6 14.12 35, 43, 53 (Avg:48)
77 Trish Reeves Marybank Marlee 5 6:09:00 13.1, 12.8 13.01 38, 44, 53 (Avg:48)
56 Wendy Bootle Blue Bopp 6 7:21:00 12.9, 9.4 10.88 35, 41, 48 (Avg:44)
149 Bob Masters Sharwood Sinai 7 7:47:00 10.7, 9.8 10.28 30, 36, 40 (Avg:38)
70 Jil Bourton Veloce Liberty Heart Rate L2 0:00:00 20.5, 19.3 - 34, 48, 67 (Avg:57)
756 Emma Kirby Razorback Tirza Lame L2 0:00:00 17.2, 12.0 - 39, 46, 50 (Avg:48)
215 Kim Fitzpatrick Cieanna Lame L1 0:00:00 17.0 - 36, 47 (Avg:47)
Lightweight
111 Cheryl Bullock Chip Chase Knight 1 (BC) 4:01:00 20.5, 19.3 19.92 34, 47, 53 (Avg:50)
11 Rohan Stanes Faris Monarch 2 6:36:00 13.1, 11.2 12.12 36, 42, 45 (Avg:43)
91 Kim Noble Cameo Goldfinger 3 6:36:01 13.1, 11.2 12.12 34, 48, 53 (Avg:50)
151 Kasey Thomas Yalandra Charisma 4 6:56:00 12.2, 10.9 11.54 30, 37, 46 (Avg:41)
22 Sarah McLaughlin Sterling Nakeeta 5 6:58:00 11.8, 11.1 11.48 39, 42, 50 (Avg:46)
183 Nicky Robinson Clarendon Sabi 5 6:58:00 11.8, 11.1 11.48 46, 46, 57 (Avg:51)
114 Helen Spencer Imoan Party Girl 7 7:00:00 12.3, 10.6 11.43 32, 43, 56 (Avg:49)
Junior
90 Samantha Noble Silhouette Tzar 1 (BC) 6:36:00 13.1, 11.2 12.12 48, 49, 55 (Avg:52)
748 Jena Crowe Sharma 2 7:51:00 10.4, 9.9 10.19 38, 36, 43 (Avg:39)